sensor_id;sensor_type;location;lat;lon;timestamp;pressure;altitude;pressure_sealevel;temperature
76895;BMP280;65855;42.030;13.078;2023-01-15T00:01:01;94121.25;;;1.21
76895;BMP280;65855;42.030;13.078;2023-01-15T00:03:27;94112.09;;;1.22
76895;BMP280;65855;42.030;13.078;2023-01-15T00:05:53;94123.69;;;0.93
76895;BMP280;65855;42.030;13.078;2023-01-15T00:08:18;94112.22;;;0.74
76895;BMP280;65855;42.030;13.078;2023-01-15T00:10:44;94113.31;;;1.48
76895;BMP280;65855;42.030;13.078;2023-01-15T00:13:09;94112.50;;;1.37
76895;BMP280;65855;42.030;13.078;2023-01-15T00:15:35;94107.25;;;1.44
76895;BMP280;65855;42.030;13.078;2023-01-15T00:18:01;94097.16;;;1.57
76895;BMP280;65855;42.030;13.078;2023-01-15T00:20:26;94106.25;;;1.17
76895;BMP280;65855;42.030;13.078;2023-01-15T00:22:52;94106.78;;;1.19
76895;BMP280;65855;42.030;13.078;2023-01-15T00:25:18;94108.66;;;0.88
76895;BMP280;65855;42.030;13.078;2023-01-15T00:28:02;94112.19;;;0.39
76895;BMP280;65855;42.030;13.078;2023-01-15T00:30:28;94107.53;;;0.24
76895;BMP280;65855;42.030;13.078;2023-01-15T00:32:53;94103.19;;;0.20
76895;BMP280;65855;42.030;13.078;2023-01-15T00:35:21;94111.66;;;0.06
76895;BMP280;65855;42.030;13.078;2023-01-15T00:37:47;94109.13;;;-0.11
76895;BMP280;65855;42.030;13.078;2023-01-15T00:40:14;94108.41;;;-0.18
76895;BMP280;65855;42.030;13.078;2023-01-15T00:42:40;94106.44;;;-0.10
76895;BMP280;65855;42.030;13.078;2023-01-15T00:45:06;94099.06;;;-0.16
76895;BMP280;65855;42.030;13.078;2023-01-15T00:47:44;94102.97;;;-0.33
76895;BMP280;65855;42.030;13.078;2023-01-15T00:50:13;94103.56;;;-0.37
76895;BMP280;65855;42.030;13.078;2023-01-15T00:52:40;94107.97;;;-0.46
76895;BMP280;65855;42.030;13.078;2023-01-15T00:55:07;94100.91;;;-0.36
76895;BMP280;65855;42.030;13.078;2023-01-15T00:57:32;94110.25;;;0.17
76895;BMP280;65855;42.030;13.078;2023-01-15T00:59:58;94112.44;;;0.07
76895;BMP280;65855;42.030;13.078;2023-01-15T01:02:23;94109.47;;;-0.08
76895;BMP280;65855;42.030;13.078;2023-01-15T01:04:49;94116.63;;;0.06
76895;BMP280;65855;42.030;13.078;2023-01-15T01:07:14;94116.22;;;0.09
76895;BMP280;65855;42.030;13.078;2023-01-15T01:09:40;94109.19;;;-0.18
76895;BMP280;65855;42.030;13.078;2023-01-15T01:12:05;94114.75;;;0.02
76895;BMP280;65855;42.030;13.078;2023-01-15T01:14:31;94114.16;;;-0.24
76895;BMP280;65855;42.030;13.078;2023-01-15T01:16:56;94122.94;;;-0.28
76895;BMP280;65855;42.030;13.078;2023-01-15T01:19:23;94122.28;;;0.61
76895;BMP280;65855;42.030;13.078;2023-01-15T01:21:49;94116.56;;;0.37
76895;BMP280;65855;42.030;13.078;2023-01-15T01:24:17;94113.94;;;-0.16
76895;BMP280;65855;42.030;13.078;2023-01-15T01:26:43;94116.34;;;-0.10
76895;BMP280;65855;42.030;13.078;2023-01-15T01:29:18;94117.38;;;-0.54
76895;BMP280;65855;42.030;13.078;2023-01-15T01:31:44;94119.69;;;-0.65
76895;BMP280;65855;42.030;13.078;2023-01-15T01:34:11;94111.25;;;-0.88
76895;BMP280;65855;42.030;13.078;2023-01-15T01:36:39;94117.34;;;-0.48
76895;BMP280;65855;42.030;13.078;2023-01-15T01:39:06;94115.28;;;-0.50
76895;BMP280;65855;42.030;13.078;2023-01-15T01:41:33;94100.72;;;-0.41
76895;BMP280;65855;42.030;13.078;2023-01-15T01:46:25;94100.28;;;-0.25
76895;BMP280;65855;42.030;13.078;2023-01-15T01:48:53;94102.50;;;-0.17
76895;BMP280;65855;42.030;13.078;2023-01-15T01:51:21;94098.97;;;-0.64
76895;BMP280;65855;42.030;13.078;2023-01-15T01:53:49;94093.38;;;-0.97
76895;BMP280;65855;42.030;13.078;2023-01-15T01:56:15;94090.41;;;-0.07
76895;BMP280;65855;42.030;13.078;2023-01-15T01:58:44;94087.94;;;0.17
76895;BMP280;65855;42.030;13.078;2023-01-15T02:01:11;94081.78;;;0.67
76895;BMP280;65855;42.030;13.078;2023-01-15T02:03:37;94081.88;;;1.83
76895;BMP280;65855;42.030;13.078;2023-01-15T02:06:06;94067.31;;;1.97
76895;BMP280;65855;42.030;13.078;2023-01-15T02:08:33;94068.41;;;2.01
76895;BMP280;65855;42.030;13.078;2023-01-15T02:10:59;94057.22;;;1.70
76895;BMP280;65855;42.030;13.078;2023-01-15T02:13:38;94058.47;;;2.01
76895;BMP280;65855;42.030;13.078;2023-01-15T02:19:14;94063.78;;;1.07
76895;BMP280;65855;42.030;13.078;2023-01-15T02:22:03;94068.47;;;0.79
76895;BMP280;65855;42.030;13.078;2023-01-15T02:27:09;94072.75;;;0.13
76895;BMP280;65855;42.030;13.078;2023-01-15T02:30:09;94064.09;;;-0.32
76895;BMP280;65855;42.030;13.078;2023-01-15T02:35:30;94061.06;;;-0.04
76895;BMP280;65855;42.030;13.078;2023-01-15T02:38:01;94055.28;;;-0.52
76895;BMP280;65855;42.030;13.078;2023-01-15T02:40:30;94051.03;;;-1.19
76895;BMP280;65855;42.030;13.078;2023-01-15T02:42:58;94052.56;;;-1.18
76895;BMP280;65855;42.030;13.078;2023-01-15T02:45:27;94060.81;;;-0.87
76895;BMP280;65855;42.030;13.078;2023-01-15T02:47:57;94054.50;;;-0.83
76895;BMP280;65855;42.030;13.078;2023-01-15T02:50:29;94053.72;;;-0.84
76895;BMP280;65855;42.030;13.078;2023-01-15T02:53:00;94058.13;;;-0.86
76895;BMP280;65855;42.030;13.078;2023-01-15T02:55:32;94056.31;;;-1.03
76895;BMP280;65855;42.030;13.078;2023-01-15T02:58:01;94058.19;;;-0.98
76895;BMP280;65855;42.030;13.078;2023-01-15T03:00:30;94059.81;;;-1.36
76895;BMP280;65855;42.030;13.078;2023-01-15T03:03:09;94064.25;;;-1.57
76895;BMP280;65855;42.030;13.078;2023-01-15T03:05:46;94070.53;;;-1.54
76895;BMP280;65855;42.030;13.078;2023-01-15T03:08:12;94061.75;;;-1.38
76895;BMP280;65855;42.030;13.078;2023-01-15T03:11:00;94058.97;;;-1.73
76895;BMP280;65855;42.030;13.078;2023-01-15T03:16:53;94048.75;;;-1.14
76895;BMP280;65855;42.030;13.078;2023-01-15T03:19:41;94042.19;;;-1.45
76895;BMP280;65855;42.030;13.078;2023-01-15T03:25:14;94039.19;;;-1.04
76895;BMP280;65855;42.030;13.078;2023-01-15T03:27:38;94028.91;;;-1.01
76895;BMP280;65855;42.030;13.078;2023-01-15T03:30:10;94022.41;;;-0.96
76895;BMP280;65855;42.030;13.078;2023-01-15T03:32:36;94026.31;;;-1.19
76895;BMP280;65855;42.030;13.078;2023-01-15T03:35:04;94025.72;;;-0.78
76895;BMP280;65855;42.030;13.078;2023-01-15T03:37:30;94017.38;;;-0.53
76895;BMP280;65855;42.030;13.078;2023-01-15T03:39:57;94015.63;;;0.02
76895;BMP280;65855;42.030;13.078;2023-01-15T03:45:11;94012.47;;;0.54
76895;BMP280;65855;42.030;13.078;2023-01-15T03:50:52;93991.56;;;1.08
76895;BMP280;65855;42.030;13.078;2023-01-15T03:53:24;93990.13;;;0.72
76895;BMP280;65855;42.030;13.078;2023-01-15T03:55:55;93986.03;;;1.24
76895;BMP280;65855;42.030;13.078;2023-01-15T03:58:29;93983.53;;;1.64
76895;BMP280;65855;42.030;13.078;2023-01-15T04:01:01;93983.97;;;1.61
76895;BMP280;65855;42.030;13.078;2023-01-15T04:03:27;93993.50;;;1.06
76895;BMP280;65855;42.030;13.078;2023-01-15T04:05:56;93987.91;;;0.64
76895;BMP280;65855;42.030;13.078;2023-01-15T04:08:22;93988.56;;;-0.17
76895;BMP280;65855;42.030;13.078;2023-01-15T04:10:50;93988.59;;;-0.48
76895;BMP280;65855;42.030;13.078;2023-01-15T04:13:16;93991.84;;;-1.57
76895;BMP280;65855;42.030;13.078;2023-01-15T04:15:41;94003.19;;;-1.44
76895;BMP280;65855;42.030;13.078;2023-01-15T04:18:07;94007.75;;;-1.41
76895;BMP280;65855;42.030;13.078;2023-01-15T04:20:33;94023.38;;;-1.46
76895;BMP280;65855;42.030;13.078;2023-01-15T04:22:59;94016.72;;;-1.52
76895;BMP280;65855;42.030;13.078;2023-01-15T04:25:24;94019.19;;;-1.52
76895;BMP280;65855;42.030;13.078;2023-01-15T04:27:53;94012.00;;;-1.54
76895;BMP280;65855;42.030;13.078;2023-01-15T04:30:18;94017.47;;;-1.45
76895;BMP280;65855;42.030;13.078;2023-01-15T04:32:47;94013.88;;;-1.56
76895;BMP280;65855;42.030;13.078;2023-01-15T04:35:12;94017.75;;;-1.85
76895;BMP280;65855;42.030;13.078;2023-01-15T04:37:38;94015.66;;;-1.82
76895;BMP280;65855;42.030;13.078;2023-01-15T04:40:04;94009.19;;;-1.76
76895;BMP280;65855;42.030;13.078;2023-01-15T04:42:30;94009.53;;;-1.54
76895;BMP280;65855;42.030;13.078;2023-01-15T04:45:14;94000.19;;;-1.58
76895;BMP280;65855;42.030;13.078;2023-01-15T04:47:39;93996.94;;;-1.46
76895;BMP280;65855;42.030;13.078;2023-01-15T04:50:05;93984.47;;;-1.70
76895;BMP280;65855;42.030;13.078;2023-01-15T04:52:31;93987.69;;;-1.76
76895;BMP280;65855;42.030;13.078;2023-01-15T04:54:56;93983.66;;;-1.51
76895;BMP280;65855;42.030;13.078;2023-01-15T04:57:21;93976.88;;;-1.81
76895;BMP280;65855;42.030;13.078;2023-01-15T04:59:47;93973.75;;;-1.51
76895;BMP280;65855;42.030;13.078;2023-01-15T05:02:12;93972.50;;;-1.67
76895;BMP280;65855;42.030;13.078;2023-01-15T05:04:38;93972.84;;;-0.83
76895;BMP280;65855;42.030;13.078;2023-01-15T05:07:04;93965.84;;;-0.14
76895;BMP280;65855;42.030;13.078;2023-01-15T05:09:30;93963.03;;;-0.42
76895;BMP280;65855;42.030;13.078;2023-01-15T05:11:55;93955.31;;;-0.51
76895;BMP280;65855;42.030;13.078;2023-01-15T05:14:21;93965.69;;;-0.97
76895;BMP280;65855;42.030;13.078;2023-01-15T05:16:46;93966.28;;;0.18
76895;BMP280;65855;42.030;13.078;2023-01-15T05:19:12;93954.00;;;0.76
76895;BMP280;65855;42.030;13.078;2023-01-15T05:21:40;93963.31;;;0.80
76895;BMP280;65855;42.030;13.078;2023-01-15T05:24:07;93958.38;;;0.10
76895;BMP280;65855;42.030;13.078;2023-01-15T05:26:34;93959.13;;;0.10
76895;BMP280;65855;42.030;13.078;2023-01-15T05:29:00;93968.25;;;-0.49
76895;BMP280;65855;42.030;13.078;2023-01-15T05:31:26;93961.28;;;0.42
76895;BMP280;65855;42.030;13.078;2023-01-15T05:33:52;93952.22;;;1.12
76895;BMP280;65855;42.030;13.078;2023-01-15T05:36:24;93958.78;;;1.58
76895;BMP280;65855;42.030;13.078;2023-01-15T05:38:50;93949.84;;;1.68
76895;BMP280;65855;42.030;13.078;2023-01-15T05:41:18;93944.97;;;1.62
76895;BMP280;65855;42.030;13.078;2023-01-15T05:44:08;93946.41;;;1.80
76895;BMP280;65855;42.030;13.078;2023-01-15T05:46:35;93943.91;;;2.14
76895;BMP280;65855;42.030;13.078;2023-01-15T05:49:03;93934.06;;;2.19
76895;BMP280;65855;42.030;13.078;2023-01-15T05:51:29;93929.44;;;2.00
76895;BMP280;65855;42.030;13.078;2023-01-15T05:53:56;93933.84;;;2.09
76895;BMP280;65855;42.030;13.078;2023-01-15T05:56:22;93936.09;;;2.11
76895;BMP280;65855;42.030;13.078;2023-01-15T05:58:48;93938.75;;;2.54
76895;BMP280;65855;42.030;13.078;2023-01-15T06:01:13;93931.34;;;2.98
76895;BMP280;65855;42.030;13.078;2023-01-15T06:03:38;93935.34;;;2.71
76895;BMP280;65855;42.030;13.078;2023-01-15T06:06:06;93932.09;;;2.21
76895;BMP280;65855;42.030;13.078;2023-01-15T06:08:31;93952.16;;;2.53
76895;BMP280;65855;42.030;13.078;2023-01-15T06:10:57;93953.28;;;2.12
76895;BMP280;65855;42.030;13.078;2023-01-15T06:13:23;93955.03;;;1.78
76895;BMP280;65855;42.030;13.078;2023-01-15T06:15:48;93953.81;;;1.58
76895;BMP280;65855;42.030;13.078;2023-01-15T06:18:14;93959.97;;;1.55
76895;BMP280;65855;42.030;13.078;2023-01-15T06:20:40;93956.72;;;1.43
76895;BMP280;65855;42.030;13.078;2023-01-15T06:23:07;93960.63;;;1.11
76895;BMP280;65855;42.030;13.078;2023-01-15T06:25:33;93965.84;;;0.92
76895;BMP280;65855;42.030;13.078;2023-01-15T06:28:06;93955.81;;;0.69
76895;BMP280;65855;42.030;13.078;2023-01-15T06:30:33;93964.50;;;0.43
76895;BMP280;65855;42.030;13.078;2023-01-15T06:32:59;93964.78;;;0.52
76895;BMP280;65855;42.030;13.078;2023-01-15T06:35:24;93970.75;;;0.63
76895;BMP280;65855;42.030;13.078;2023-01-15T06:37:50;93959.44;;;0.84
76895;BMP280;65855;42.030;13.078;2023-01-15T06:40:16;93962.69;;;0.85
76895;BMP280;65855;42.030;13.078;2023-01-15T06:42:42;93966.31;;;0.53
76895;BMP280;65855;42.030;13.078;2023-01-15T06:45:28;93956.38;;;0.53
76895;BMP280;65855;42.030;13.078;2023-01-15T06:48:16;93954.19;;;0.28
76895;BMP280;65855;42.030;13.078;2023-01-15T06:50:41;93946.25;;;0.37
76895;BMP280;65855;42.030;13.078;2023-01-15T06:53:07;93943.91;;;0.60
76895;BMP280;65855;42.030;13.078;2023-01-15T06:55:32;93941.50;;;0.71
76895;BMP280;65855;42.030;13.078;2023-01-15T06:57:58;93936.59;;;0.65
76895;BMP280;65855;42.030;13.078;2023-01-15T07:00:23;93941.06;;;0.74
76895;BMP280;65855;42.030;13.078;2023-01-15T07:02:48;93942.06;;;1.13
76895;BMP280;65855;42.030;13.078;2023-01-15T07:05:14;93943.13;;;1.06
76895;BMP280;65855;42.030;13.078;2023-01-15T07:07:40;93941.41;;;0.77
76895;BMP280;65855;42.030;13.078;2023-01-15T07:10:05;93940.72;;;0.99
76895;BMP280;65855;42.030;13.078;2023-01-15T07:12:33;93948.00;;;1.12
76895;BMP280;65855;42.030;13.078;2023-01-15T07:14:59;93941.75;;;1.21
76895;BMP280;65855;42.030;13.078;2023-01-15T07:17:24;93956.28;;;1.06
76895;BMP280;65855;42.030;13.078;2023-01-15T07:19:50;93948.00;;;1.12
76895;BMP280;65855;42.030;13.078;2023-01-15T07:22:15;93956.66;;;1.21
76895;BMP280;65855;42.030;13.078;2023-01-15T07:24:41;93955.09;;;1.09
76895;BMP280;65855;42.030;13.078;2023-01-15T07:27:06;93942.72;;;1.20
76895;BMP280;65855;42.030;13.078;2023-01-15T07:29:31;93950.47;;;1.12
76895;BMP280;65855;42.030;13.078;2023-01-15T07:31:57;93943.03;;;1.12
76895;BMP280;65855;42.030;13.078;2023-01-15T07:34:22;93935.16;;;1.15
76895;BMP280;65855;42.030;13.078;2023-01-15T07:36:48;93935.81;;;1.11
76895;BMP280;65855;42.030;13.078;2023-01-15T07:39:14;93945.81;;;1.04
76895;BMP280;65855;42.030;13.078;2023-01-15T07:41:39;93934.88;;;1.23
76895;BMP280;65855;42.030;13.078;2023-01-15T07:44:23;93938.69;;;1.59
76895;BMP280;65855;42.030;13.078;2023-01-15T07:47:22;93939.91;;;1.68
76895;BMP280;65855;42.030;13.078;2023-01-15T07:50:14;93944.00;;;1.74
76895;BMP280;65855;42.030;13.078;2023-01-15T07:52:40;93940.97;;;1.83
76895;BMP280;65855;42.030;13.078;2023-01-15T07:55:06;93949.84;;;1.68
76895;BMP280;65855;42.030;13.078;2023-01-15T07:57:33;93942.88;;;1.47
76895;BMP280;65855;42.030;13.078;2023-01-15T07:59:59;93937.84;;;1.65
76895;BMP280;65855;42.030;13.078;2023-01-15T08:02:25;93942.28;;;1.74
76895;BMP280;65855;42.030;13.078;2023-01-15T08:04:50;93939.13;;;1.90
76895;BMP280;65855;42.030;13.078;2023-01-15T08:07:15;93943.03;;;1.97
76895;BMP280;65855;42.030;13.078;2023-01-15T08:09:41;93946.50;;;2.08
76895;BMP280;65855;42.030;13.078;2023-01-15T08:12:06;93930.72;;;2.14
76895;BMP280;65855;42.030;13.078;2023-01-15T08:14:55;93932.34;;;2.58
76895;BMP280;65855;42.030;13.078;2023-01-15T08:17:49;93934.34;;;2.84
76895;BMP280;65855;42.030;13.078;2023-01-15T08:20:24;93940.09;;;3.00
76895;BMP280;65855;42.030;13.078;2023-01-15T08:22:49;93926.78;;;3.22
76895;BMP280;65855;42.030;13.078;2023-01-15T08:25:17;93925.34;;;3.26
76895;BMP280;65855;42.030;13.078;2023-01-15T08:27:44;93933.59;;;2.99
76895;BMP280;65855;42.030;13.078;2023-01-15T08:30:12;93932.88;;;3.15
76895;BMP280;65855;42.030;13.078;2023-01-15T08:32:38;93929.28;;;3.38
76895;BMP280;65855;42.030;13.078;2023-01-15T08:35:03;93930.75;;;3.51
76895;BMP280;65855;42.030;13.078;2023-01-15T08:37:29;93930.66;;;3.62
76895;BMP280;65855;42.030;13.078;2023-01-15T08:39:55;93919.53;;;3.85
76895;BMP280;65855;42.030;13.078;2023-01-15T08:42:20;93926.69;;;3.98
76895;BMP280;65855;42.030;13.078;2023-01-15T08:44:47;93925.78;;;4.20
76895;BMP280;65855;42.030;13.078;2023-01-15T08:47:13;93917.44;;;4.31
76895;BMP280;65855;42.030;13.078;2023-01-15T08:49:38;93930.25;;;4.39
76895;BMP280;65855;42.030;13.078;2023-01-15T08:52:03;93940.56;;;4.64
76895;BMP280;65855;42.030;13.078;2023-01-15T08:54:29;93932.16;;;4.96
76895;BMP280;65855;42.030;13.078;2023-01-15T08:56:54;93929.06;;;5.10
76895;BMP280;65855;42.030;13.078;2023-01-15T08:59:20;93932.19;;;5.01
76895;BMP280;65855;42.030;13.078;2023-01-15T09:01:46;93943.19;;;5.00
76895;BMP280;65855;42.030;13.078;2023-01-15T09:04:16;93937.13;;;4.70
76895;BMP280;65855;42.030;13.078;2023-01-15T09:06:42;93941.56;;;4.26
76895;BMP280;65855;42.030;13.078;2023-01-15T09:09:08;93943.59;;;4.29
76895;BMP280;65855;42.030;13.078;2023-01-15T09:11:34;93944.66;;;4.32
76895;BMP280;65855;42.030;13.078;2023-01-15T09:14:00;93949.94;;;4.57
76895;BMP280;65855;42.030;13.078;2023-01-15T09:16:25;93945.81;;;4.46
76895;BMP280;65855;42.030;13.078;2023-01-15T09:18:52;93943.72;;;4.38
76895;BMP280;65855;42.030;13.078;2023-01-15T09:21:19;93943.38;;;4.51
76895;BMP280;65855;42.030;13.078;2023-01-15T09:23:44;93928.88;;;4.48
76895;BMP280;65855;42.030;13.078;2023-01-15T09:26:31;93912.25;;;4.79
76895;BMP280;65855;42.030;13.078;2023-01-15T09:28:57;93903.56;;;4.87
76895;BMP280;65855;42.030;13.078;2023-01-15T09:31:23;93901.59;;;5.41
76895;BMP280;65855;42.030;13.078;2023-01-15T09:33:49;93900.75;;;5.92
76895;BMP280;65855;42.030;13.078;2023-01-15T09:36:16;93899.50;;;6.40
76895;BMP280;65855;42.030;13.078;2023-01-15T09:38:43;93900.16;;;6.81
76895;BMP280;65855;42.030;13.078;2023-01-15T09:41:11;93903.22;;;6.98
76895;BMP280;65855;42.030;13.078;2023-01-15T09:44:10;93898.28;;;7.27
76895;BMP280;65855;42.030;13.078;2023-01-15T09:46:52;93901.03;;;7.75
76895;BMP280;65855;42.030;13.078;2023-01-15T09:52:24;93907.03;;;8.08
76895;BMP280;65855;42.030;13.078;2023-01-15T09:55:10;93899.78;;;7.92
76895;BMP280;65855;42.030;13.078;2023-01-15T09:57:39;93911.84;;;7.46
76895;BMP280;65855;42.030;13.078;2023-01-15T10:00:05;93895.84;;;6.67
76895;BMP280;65855;42.030;13.078;2023-01-15T10:02:39;93908.06;;;6.49
76895;BMP280;65855;42.030;13.078;2023-01-15T10:05:14;93900.63;;;5.77
76895;BMP280;65855;42.030;13.078;2023-01-15T10:13:30;93905.81;;;5.09
76895;BMP280;65855;42.030;13.078;2023-01-15T10:15:59;93899.31;;;5.39
76895;BMP280;65855;42.030;13.078;2023-01-15T10:18:27;93895.56;;;5.68
76895;BMP280;65855;42.030;13.078;2023-01-15T10:23:51;93868.50;;;5.65
76895;BMP280;65855;42.030;13.078;2023-01-15T10:26:31;93860.03;;;6.01
76895;BMP280;65855;42.030;13.078;2023-01-15T10:37:42;93828.75;;;5.99
76895;BMP280;65855;42.030;13.078;2023-01-15T10:46:27;93805.97;;;6.85
76895;BMP280;65855;42.030;13.078;2023-01-15T10:49:04;93804.25;;;7.15
76895;BMP280;65855;42.030;13.078;2023-01-15T10:51:54;93795.91;;;7.68
76895;BMP280;65855;42.030;13.078;2023-01-15T10:54:41;93791.34;;;8.05
76895;BMP280;65855;42.030;13.078;2023-01-15T10:57:24;93787.00;;;8.15
76895;BMP280;65855;42.030;13.078;2023-01-15T10:59:59;93791.81;;;8.12
76895;BMP280;65855;42.030;13.078;2023-01-15T11:02:49;93776.53;;;7.84
76895;BMP280;65855;42.030;13.078;2023-01-15T11:05:19;93782.09;;;7.76
76895;BMP280;65855;42.030;13.078;2023-01-15T11:07:51;93780.38;;;7.52
76895;BMP280;65855;42.030;13.078;2023-01-15T11:10:20;93788.69;;;7.47
76895;BMP280;65855;42.030;13.078;2023-01-15T11:12:56;93782.91;;;7.47
76895;BMP280;65855;42.030;13.078;2023-01-15T11:15:44;93786.94;;;7.23
76895;BMP280;65855;42.030;13.078;2023-01-15T11:18:33;93783.66;;;7.18
76895;BMP280;65855;42.030;13.078;2023-01-15T11:21:20;93774.91;;;7.11
76895;BMP280;65855;42.030;13.078;2023-01-15T11:23:48;93768.91;;;7.02
76895;BMP280;65855;42.030;13.078;2023-01-15T11:26:23;93777.34;;;6.62
76895;BMP280;65855;42.030;13.078;2023-01-15T11:28:51;93782.91;;;6.78
76895;BMP280;65855;42.030;13.078;2023-01-15T11:31:17;93784.34;;;6.55
76895;BMP280;65855;42.030;13.078;2023-01-15T11:34:06;93778.41;;;6.75
76895;BMP280;65855;42.030;13.078;2023-01-15T11:36:30;93767.34;;;6.67
76895;BMP280;65855;42.030;13.078;2023-01-15T11:38:56;93763.75;;;6.28
76895;BMP280;65855;42.030;13.078;2023-01-15T11:41:27;93766.78;;;6.25
76895;BMP280;65855;42.030;13.078;2023-01-15T11:44:12;93759.09;;;6.76
76895;BMP280;65855;42.030;13.078;2023-01-15T11:46:57;93753.34;;;7.05
76895;BMP280;65855;42.030;13.078;2023-01-15T11:49:51;93743.84;;;7.02
76895;BMP280;65855;42.030;13.078;2023-01-15T11:52:50;93741.56;;;6.91
76895;BMP280;65855;42.030;13.078;2023-01-15T11:55:19;93743.81;;;6.63
76895;BMP280;65855;42.030;13.078;2023-01-15T11:57:46;93742.78;;;6.44
76895;BMP280;65855;42.030;13.078;2023-01-15T12:00:27;93720.78;;;6.75
76895;BMP280;65855;42.030;13.078;2023-01-15T12:02:58;93717.00;;;7.02
76895;BMP280;65855;42.030;13.078;2023-01-15T12:05:31;93723.78;;;6.72
76895;BMP280;65855;42.030;13.078;2023-01-15T12:08:02;93715.25;;;7.03
76895;BMP280;65855;42.030;13.078;2023-01-15T12:10:35;93727.25;;;7.30
76895;BMP280;65855;42.030;13.078;2023-01-15T12:24:52;93683.06;;;9.42
76895;BMP280;65855;42.030;13.078;2023-01-15T12:30:08;93683.00;;;9.47
76895;BMP280;65855;42.030;13.078;2023-01-15T12:32:43;93684.66;;;9.57
76895;BMP280;65855;42.030;13.078;2023-01-15T12:35:24;93680.13;;;9.59
76895;BMP280;65855;42.030;13.078;2023-01-15T12:37:57;93677.81;;;9.39
76895;BMP280;65855;42.030;13.078;2023-01-15T12:40:29;93678.91;;;9.28
76895;BMP280;65855;42.030;13.078;2023-01-15T12:42:56;93676.00;;;9.16
76895;BMP280;65855;42.030;13.078;2023-01-15T12:45:46;93678.13;;;9.05
76895;BMP280;65855;42.030;13.078;2023-01-15T12:48:30;93660.19;;;9.16
76895;BMP280;65855;42.030;13.078;2023-01-15T12:51:00;93665.41;;;9.19
76895;BMP280;65855;42.030;13.078;2023-01-15T12:53:29;93662.41;;;9.17
76895;BMP280;65855;42.030;13.078;2023-01-15T12:58:59;93661.34;;;9.23
76895;BMP280;65855;42.030;13.078;2023-01-15T13:04:21;93654.41;;;9.15
76895;BMP280;65855;42.030;13.078;2023-01-15T13:06:56;93641.56;;;9.17
76895;BMP280;65855;42.030;13.078;2023-01-15T13:09:41;93651.19;;;9.10
76895;BMP280;65855;42.030;13.078;2023-01-15T13:12:13;93646.94;;;9.06
76895;BMP280;65855;42.030;13.078;2023-01-15T13:14:39;93637.38;;;9.08
76895;BMP280;65855;42.030;13.078;2023-01-15T13:34:07;93617.25;;;9.54
76895;BMP280;65855;42.030;13.078;2023-01-15T13:36:41;93612.81;;;9.46
76895;BMP280;65855;42.030;13.078;2023-01-15T13:39:23;93605.81;;;9.43
76895;BMP280;65855;42.030;13.078;2023-01-15T13:41:51;93604.25;;;9.47
76895;BMP280;65855;42.030;13.078;2023-01-15T13:44:46;93606.81;;;9.42
76895;BMP280;65855;42.030;13.078;2023-01-15T13:47:24;93607.94;;;9.31
76895;BMP280;65855;42.030;13.078;2023-01-15T13:49:56;93603.47;;;9.28
76895;BMP280;65855;42.030;13.078;2023-01-15T13:55:00;93603.50;;;9.23
76895;BMP280;65855;42.030;13.078;2023-01-15T13:57:34;93595.00;;;9.19
76895;BMP280;65855;42.030;13.078;2023-01-15T14:00:02;93607.13;;;9.12
76895;BMP280;65855;42.030;13.078;2023-01-15T14:02:33;93599.81;;;9.16
76895;BMP280;65855;42.030;13.078;2023-01-15T14:05:33;93606.34;;;9.17
76895;BMP280;65855;42.030;13.078;2023-01-15T14:08:01;93594.03;;;9.15
76895;BMP280;65855;42.030;13.078;2023-01-15T14:10:34;93601.78;;;9.19
76895;BMP280;65855;42.030;13.078;2023-01-15T14:27:30;93601.38;;;9.35
76895;BMP280;65855;42.030;13.078;2023-01-15T14:35:01;93607.94;;;9.31
76895;BMP280;65855;42.030;13.078;2023-01-15T14:37:37;93605.97;;;9.28
76895;BMP280;65855;42.030;13.078;2023-01-15T14:40:23;93599.97;;;9.24
76895;BMP280;65855;42.030;13.078;2023-01-15T14:42:52;93576.59;;;9.24
76895;BMP280;65855;42.030;13.078;2023-01-15T14:47:54;93566.75;;;9.27
76895;BMP280;65855;42.030;13.078;2023-01-15T14:50:37;93572.91;;;9.39
76895;BMP280;65855;42.030;13.078;2023-01-15T14:55:46;93566.63;;;9.37
76895;BMP280;65855;42.030;13.078;2023-01-15T14:58:22;93574.91;;;9.37
76895;BMP280;65855;42.030;13.078;2023-01-15T15:00:52;93577.44;;;9.37
76895;BMP280;65855;42.030;13.078;2023-01-15T15:03:21;93570.53;;;9.48
76895;BMP280;65855;42.030;13.078;2023-01-15T15:05:50;93571.81;;;9.45
76895;BMP280;65855;42.030;13.078;2023-01-15T15:08:17;93569.06;;;9.42
76895;BMP280;65855;42.030;13.078;2023-01-15T15:10:45;93561.59;;;9.37
76895;BMP280;65855;42.030;13.078;2023-01-15T15:16:10;93553.63;;;9.30
76895;BMP280;65855;42.030;13.078;2023-01-15T15:18:46;93561.31;;;9.38
76895;BMP280;65855;42.030;13.078;2023-01-15T15:21:16;93555.81;;;9.36
76895;BMP280;65855;42.030;13.078;2023-01-15T15:24:10;93551.81;;;9.35
76895;BMP280;65855;42.030;13.078;2023-01-15T15:26:36;93559.56;;;9.39
76895;BMP280;65855;42.030;13.078;2023-01-15T15:29:05;93558.28;;;9.41
76895;BMP280;65855;42.030;13.078;2023-01-15T15:31:34;93555.06;;;9.36
76895;BMP280;65855;42.030;13.078;2023-01-15T15:34:00;93551.09;;;9.30
76895;BMP280;65855;42.030;13.078;2023-01-15T15:36:30;93551.81;;;9.54
76895;BMP280;65855;42.030;13.078;2023-01-15T15:39:00;93541.50;;;9.32
76895;BMP280;65855;42.030;13.078;2023-01-15T15:41:34;93534.06;;;9.45
76895;BMP280;65855;42.030;13.078;2023-01-15T15:47:40;93544.88;;;9.46
76895;BMP280;65855;42.030;13.078;2023-01-15T15:50:28;93539.97;;;9.36
76895;BMP280;65855;42.030;13.078;2023-01-15T15:52:55;93539.13;;;9.22
76895;BMP280;65855;42.030;13.078;2023-01-15T15:55:24;93529.69;;;9.14
76895;BMP280;65855;42.030;13.078;2023-01-15T15:57:57;93529.69;;;9.14
76895;BMP280;65855;42.030;13.078;2023-01-15T16:00:30;93533.31;;;9.45
76895;BMP280;65855;42.030;13.078;2023-01-15T16:03:00;93532.38;;;9.41
76895;BMP280;65855;42.030;13.078;2023-01-15T16:05:28;93524.47;;;9.29
76895;BMP280;65855;42.030;13.078;2023-01-15T16:08:18;93525.44;;;9.10
76895;BMP280;65855;42.030;13.078;2023-01-15T16:10:50;93517.66;;;9.30
76895;BMP280;65855;42.030;13.078;2023-01-15T16:13:32;93520.91;;;9.30
76895;BMP280;65855;42.030;13.078;2023-01-15T16:16:00;93530.69;;;9.13
76895;BMP280;65855;42.030;13.078;2023-01-15T16:18:30;93515.72;;;9.04
76895;BMP280;65855;42.030;13.078;2023-01-15T16:20:56;93529.69;;;9.14
76895;BMP280;65855;42.030;13.078;2023-01-15T16:23:25;93535.28;;;9.07
76895;BMP280;65855;42.030;13.078;2023-01-15T16:25:59;93542.91;;;9.02